Elliot Chaparral Reserve, California Weather observations

Data are for 10 minute period ending at time listed.
 Day   Time   Solar   Ave.   Ave.  Ave.  Vector  Max.   Baro.   Total    
  of    of     Rad.   Air    Rel.  Wind   Wind   Wind  Press.  Precip.   
Year   Day            Temp.  Hum.  Speed  Dir.   Gust                    
2015   (PST)  Kw/m2    F      %     mph   deg.    mph    mb.     in.     
-------------------------------------------------------------------------
 114    4:10   0.00   54.5    95    1.1   106     1.6   984.7    0.00 
 114    4:20   0.00   54.6    95    2.6   118     3.9   984.7    0.00 
 114    4:30   0.00   54.5    95    2.4    83     3.9   984.7    0.00 
 114    4:40   0.00   54.4    95    2.7    86     3.9   984.8    0.00 
 114    4:50   0.00   54.4    95    3.4    99     4.9   984.9    0.00 
 114    5:00   0.00   54.4    95    1.6    84     3.0   985.0    0.00 
 114    5:10   0.00   54.6    95    1.7   106     2.8   985.1    0.00 
 114    5:20   0.00   54.6    95    2.6    90     3.3   985.2    0.00 
 114    5:30   0.00   54.7    95    2.9   100     3.9   985.3    0.00 
 114    5:40   0.01   54.7    95    3.8   105     6.5   985.3    0.00 
 114    5:50   0.02   54.7    95    6.9   118     9.1   985.3    0.00 
 114    6:00   0.03   54.7    95    7.5   120     9.0   985.4    0.00 
 114    6:10   0.04   54.8    95    6.7   120     8.5   985.7    0.00 
 114    6:20   0.04   55.0    95    6.2   117     7.9   985.8    0.00 
 114    6:30   0.03   55.1    95    5.5   117     6.9   986.0    0.00 
 114    6:40   0.02   55.2    95    5.3   134     6.4   986.1    0.00 
 114    6:50   0.01   55.3    94    6.0   172     8.6   986.2    0.00 
 114    7:00   0.03   55.0    94    4.7   197     7.2   986.3    0.00 
 114    7:10   0.04   55.1    94    4.0   243     5.0   986.4    0.00 
 114    7:20   0.04   55.1    94    4.2   269     5.5   986.5    0.00 
 114    7:30   0.07   55.1    94    2.4   255     3.6   986.5    0.00 
 114    7:40   0.06   55.6    93    2.4   212     3.5   986.6    0.00 
 114    7:50   0.04   55.8    92    2.7   189     6.1   986.7    0.00 
 114    8:00   0.05   55.4    92   10.0   193    12.9   986.9    0.00 
 114    8:10   0.11   55.3    93    9.2   197    11.8   986.9    0.00 
 114    8:20   0.17   55.9    93    6.8   196     9.0   987.0    0.00 
 114    8:30   0.09   56.1    92    8.8   172    12.3   987.0    0.00 
 114    8:40   0.06   55.8    93    9.7   177    13.5   987.1    0.01 
 114    8:50   0.11   55.4    93    8.9   185    12.6   987.2    0.00 
 114    9:00   0.18   56.1    92    7.4   190     9.9   987.3    0.00 
 114    9:10   0.21   56.9    90    9.5   179    12.7   987.3    0.00 
 114    9:20   0.12   57.1    88   11.0   199    14.1   987.3    0.00 
 114    9:30   0.08   56.4    88   11.9   230    15.6   987.5    0.00 
 114    9:40   0.08   56.2    90   10.8   218    14.2   987.6    0.00 
 114    9:50   0.09   56.1    91    9.8   228    13.5   987.7    0.00 
 114   10:00   0.14   56.1    90    9.7   244    12.2   987.6    0.00 
 114   10:10   0.14   56.7    89    9.3   245    14.4   987.6    0.00 
 114   10:20   0.11   56.7    87   10.2   241    13.7   987.7    0.00 
 114   10:30   0.10   56.7    88   10.3   250    13.7   987.6    0.00 
 114   10:40   0.09   56.4    89   10.1   250    13.3   987.6    0.00 
 114   10:50   0.06   56.3    90    9.5   236    13.6   987.7    0.01 
 114   11:00   0.09   56.0    92    7.4   235    11.7   987.7    0.00 
 114   11:10   0.09   55.9    92    9.2   240    12.3   987.7    0.01 
 114   11:20   0.08   55.8    92    9.5   239    11.9   987.7    0.00 
 114   11:30   0.09   56.0    91    8.5   245    10.4   987.7    0.00 
 114   11:40   0.11   56.2    90    8.7   233    12.6   987.7    0.00 
 114   11:50   0.11   56.4    89    9.3   212    13.0   987.6    0.00 
 114   12:00   0.09   56.6    90    7.1   196    12.1   987.6    0.00 
 114   12:10   0.14   56.8    88    9.1   231    11.3   987.6    0.00 
 114   12:20   0.14   57.6    86    9.2   240    12.7   987.6    0.00 
 114   12:30   0.18   57.8    83    9.8   247    14.3   987.6    0.00 
 114   12:40   0.35   59.1    79   10.7   248    15.3   987.5    0.00 
 114   12:50   0.15   59.1    78   11.1   231    14.8   987.6    0.00 
 114   13:00   0.14   58.8    78   12.2   237    14.8   987.5    0.00 
 114   13:10   0.20   59.3    76   11.7   247    15.3   987.5    0.00 
 114   13:20   0.14   59.3    76   10.2   237    13.8   987.5    0.00 
 114   13:30   0.14   59.3    75   12.1   240    15.2   987.5    0.00 
 114   13:40   0.17   59.3    75   10.9   242    13.8   987.4    0.00 
 114   13:50   0.10   59.4    75   11.6   235    15.4   987.3    0.00 
 114   14:00   0.10   59.0    75   11.6   239    15.0   987.2    0.00 
 114   14:10   0.11   59.3    74   10.5   248    14.6   987.2    0.00 
 114   14:20   0.14   59.5    73   10.8   232    14.6   987.1    0.00 
 114   14:30   0.19   59.9    73   10.8   243    16.6   987.0    0.00 
 114   14:40   0.14   59.3    77   11.5   276    15.6   986.9    0.00 
 114   14:50   0.13   59.0    78   11.9   277    15.8   986.9    0.00 
 114   15:00   0.14   59.4    74   11.6   249    15.9   986.9    0.00 
 114   15:10   0.15   59.9    73   10.9   247    15.6   986.8    0.00 
 114   15:20   0.20   60.1    72   10.4   249    15.3   986.8    0.00 
 114   15:30   0.24   60.8    70   10.8   246    16.9   986.8    0.00 
 114   15:40   0.23   61.4    69   11.0   239    16.1   986.7    0.00 
 114   15:50   0.20   60.9    70   12.2   236    16.7   986.6    0.00 
 114   16:00   0.38   61.4    69   11.3   237    16.4   986.6    0.00 
 114   16:10   0.20   60.6    70   12.1   232    15.9   986.7    0.00 
 114   16:20   0.12   60.1    71   11.3   240    14.6   986.7    0.00 
 114   16:30   0.08   59.5    73   10.9   236    14.9   986.7    0.00 
 114   16:40   0.07   59.2    73    9.6   237    13.4   986.7    0.00 
 114   16:50   0.05   59.0    73    9.3   238    13.7   986.6    0.00 
 114   17:00   0.04   58.9    73   10.6   246    14.8   986.6    0.00 
 114   17:10   0.03   58.4    75   11.6   242    14.7   986.6    0.00 
 114   17:20   0.03   58.0    76   12.3   254    14.8   986.7    0.00 
 114   17:30   0.03   57.8    76   10.5   252    14.2   986.6    0.00 
 114   17:40   0.02   57.7    76   10.1   251    14.0   986.6    0.00 
 114   17:50   0.01   57.5    76    9.1   252    11.8   986.6    0.00 
 114   18:00   0.00   57.4    76    9.3   265    12.3   986.6    0.00 
 114   18:10   0.00   57.2    77    9.6   265    12.1   986.6    0.00 
 114   18:20   0.00   56.9    77   10.2   268    13.2   986.7    0.00 
 114   18:30   0.00   56.8    78   10.2   270    12.9   986.7    0.00 
 114   18:40   0.00   56.6    79    8.7   274    12.2   986.8    0.00 
 114   18:50   0.00   56.7    78    8.2   262    11.3   986.9    0.00 
 114   19:00   0.00   56.6    79    6.6   263     9.4   986.9    0.00 
 114   19:10   0.00   56.6    79    5.9   250     7.9   986.9    0.00 
 114   19:20   0.00   56.6    80    6.4   260     9.9   987.0    0.00 
 114   19:30   0.00   56.5    80    4.7   270     6.6   987.0    0.00 
 114   19:40   0.00   56.4    81    5.6   267     7.7   987.0    0.00 
 114   19:50   0.00   56.2    81    6.3   275     7.7   987.2    0.00 
 114   20:00   0.00   56.2    81    5.3   271     6.4   987.2    0.00 
 114   20:10   0.00   56.2    81    5.4   283     6.8   987.3    0.00 
 114   20:20   0.00   56.2    81    4.2   281     5.4   987.4    0.00 
 114   20:30   0.00   56.3    81    3.1   282     5.4   987.5    0.00 
 114   20:40   0.00   56.3    81    3.3   281     5.0   987.5    0.00 
 114   20:50   0.00   56.4    81    2.5   267     4.2   987.5    0.00 
 114   21:00   0.00   56.5    81    3.1   256     3.9   987.6    0.00 
 114   21:10   0.00   56.6    80    3.9   249     5.0   987.6    0.00 
 114   21:20   0.00   56.5    80    5.4   263     7.0   987.6    0.00 
 114   21:30   0.00   56.4    81    5.6   266     7.3   987.6    0.00 
 114   21:40   0.00   56.2    81    5.8   279     7.1   987.6    0.00 
 114   21:50   0.00   56.1    81    4.7   282     6.3   987.6    0.00 
 114   22:00   0.00   56.1    81    4.4   290     5.6   987.5    0.00 
 114   22:10   0.00   56.1    81    5.0   279     6.2   987.4    0.00 
 114   22:20   0.00   56.1    81    4.8   284     6.4   987.4    0.00 
 114   22:30   0.00   56.1    81    4.3   286     5.3   987.4    0.00 
 114   22:40   0.00   56.1    81    4.2   282     5.4   987.4    0.00 
 114   22:50   0.00   56.1    80    3.9   278     5.3   987.4    0.00 
 114   23:00   0.00   56.2    80    3.1   261     4.5   987.3    0.00 
 114   23:10   0.00   56.1    80    2.6   244     3.4   987.2    0.00 
 114   23:20   0.00   56.0    80    3.3   224     4.0   987.1    0.00 
 114   23:30   0.00   55.9    81    2.6   200     3.4   987.0    0.00 
 114   23:40   0.00   55.7    82    2.9   166     5.0   987.0    0.00 
 114   23:50   0.00   55.4    83    4.9   152     5.7   986.8    0.00 
 115    0:00   0.00   55.1    84    4.9   163     6.3   986.7    0.00 
 115    0:10   0.00   55.2    84    5.6   173     7.5   986.6    0.00 
 115    0:20   0.00   55.3    84    4.9   188     6.8   986.5    0.00 
 115    0:30   0.00   55.4    84    4.2   202     5.5   986.6    0.00 
 115    0:40   0.00   55.6    83    4.0   210     5.7   986.6    0.00 
 115    0:50   0.00   55.6    83    3.0   199     3.6   986.6    0.00 
 115    1:00   0.00   55.5    84    3.6   193     4.4   986.6    0.00 
 115    1:10   0.00   55.5    84    4.8   197     6.6   986.6    0.00 
 115    1:20   0.00   55.7    83    6.6   222     9.0   986.6    0.00 
 115    1:30   0.00   55.8    82    7.7   226     9.9   986.6    0.00 
 115    1:40   0.00   55.9    82    6.9   229    10.2   986.6    0.00 
 115    1:50   0.00   55.9    82    6.5   221     8.2   986.6    0.00 
 115    2:00   0.00   55.9    82    6.5   212     8.5   986.4    0.00 
 115    2:10   0.00   55.9    82    6.4   207     8.9   986.4    0.00 
 115    2:20   0.00   55.8    82    6.4   187     9.1   986.3    0.00 
 115    2:30   0.00   55.6    83    6.0   190     7.5   986.4    0.00 
 115    2:40   0.00   55.5    83    4.8   189     6.5   986.4    0.00 
 115    2:50   0.00   55.5    83    5.4   173     7.4   986.3    0.00 
 115    3:00   0.00   55.6    83    6.0   172     7.5   986.1    0.00 
 115    3:10   0.00   55.6    83    5.2   176     6.9   986.2    0.00 
 115    3:20   0.00   55.7    83    5.1   174     6.6   986.2    0.00 
 115    3:30   0.00   55.7    83    5.9   169     7.7   986.1    0.00 
 115    3:40   0.00   55.6    84    6.2   162     7.6   986.1    0.00 
 115    3:50   0.00   55.4    84    6.8   161     8.2   986.1    0.00 
 115    4:00   0.00   55.3    84    6.8   163     8.9   986.1    0.00 

Return to Elliot Chaparral Reserve graphs page.


Western Regional Climate Center,wrcc@dri.edu